Tofino Airport
CYAZ : now visible

Airfield :











YOU CAN JOIN US ON...

 
LOGIN :

Register | Disclaimer

   EN    FR    IT 

 









Legend :    VFR   Marginal VFR   IFR   Intensive IFR   Very Intensive IFR
Visi :
Ceiling :
>= 8 km
>= 3000ft
5 to 8 km
1000 to 3000 ft
1500m to 5 km
500 to 1000 ft
800 to 1500m
200 to 500 ft
< 800m
< 200 ft
Symbols :   Thunderstorms  Fog  Heavy snow  Heavy precipitations  Wind > 20 kt






- Airport Elevation : 80 ft
- IATA code : YAZ


CYAZ - Tofino

CURRENT METAR :
  • 271700Z 16008G17KT 8SM SCT008 OVC049 10/10 A3012 RMK SC4SC4 INTMT -RA SLP203

EXPIRED METARs :
  • 271600Z 16010G17KT 8SM -RA SCT008 OVC053 10/10 A3012 RMK SC3SC5 -RA INTMT SLP203
  • 271548Z 16011G17KT 8SM -RA SCT007 OVC051 10/10 A3013 RMK SC4SC4 SLP204
  • 271500Z 17011G17KT 5SM BR SCT007 OVC054 10/10 A3013 RMK SC4SC4 SLP206

TAF TAF CYAZ
Valid from the 27 at 17:00 until the 28 at 01:00 UTC


271638Z 2717/2801 16012G22KT 6SM -RA BR SCT008 OVC040
TEMPO 2717/2724 2SM RA BR FEW004 BKN007 OVC030
BECMG 2717/2719 14018G28KT
FM280000 29015G25KT P6SM -RA FEW008 BKN020 RMK NXT FCST BY 271900Z
CZVR FIR / North America



MET'MAP, your aeronautical weather chart ! - Copyright ORBIFLY December 2007 - Disclaimer

ORBIFLY MET'MAP TEAM :

Programming & Development : Alexandra Zaïnal
Concept & original design : Baudouin d'Aumeries
Assistance for programming : Marc-Olivier Méhu
Technical & hardware support : Manuel Goepfert

Contact : metmap@orbifly.com




SOURCES & CREDITS :

   NOAA       Earth
Advisory